sensor_id;sensor_type;location;lat;lon;timestamp;P1;durP1;ratioP1;P2;durP2;ratioP2
57327;SDS011;43162;51.040;18.244;2022-07-24T00:00:45;18.70;;;11.60;;
57327;SDS011;43162;51.040;18.244;2022-07-24T00:03:29;20.20;;;12.30;;
57327;SDS011;43162;51.040;18.244;2022-07-24T00:06:13;18.40;;;10.30;;
57327;SDS011;43162;51.040;18.244;2022-07-24T00:08:58;21.30;;;10.60;;
57327;SDS011;43162;51.040;18.244;2022-07-24T00:11:42;15.90;;;9.70;;
57327;SDS011;43162;51.040;18.244;2022-07-24T00:14:26;15.30;;;9.90;;
57327;SDS011;43162;51.040;18.244;2022-07-24T00:17:11;17.30;;;10.60;;
57327;SDS011;43162;51.040;18.244;2022-07-24T00:19:55;16.50;;;10.30;;
57327;SDS011;43162;51.040;18.244;2022-07-24T00:22:39;21.20;;;10.90;;
57327;SDS011;43162;51.040;18.244;2022-07-24T00:25:23;18.40;;;11.90;;
57327;SDS011;43162;51.040;18.244;2022-07-24T00:28:08;25.10;;;12.50;;
57327;SDS011;43162;51.040;18.244;2022-07-24T00:30:52;23.20;;;11.90;;
57327;SDS011;43162;51.040;18.244;2022-07-24T00:33:37;25.20;;;12.30;;
57327;SDS011;43162;51.040;18.244;2022-07-24T00:36:21;29.20;;;12.00;;
57327;SDS011;43162;51.040;18.244;2022-07-24T00:39:05;24.00;;;11.70;;
57327;SDS011;43162;51.040;18.244;2022-07-24T00:41:50;25.20;;;11.40;;
57327;SDS011;43162;51.040;18.244;2022-07-24T00:44:36;21.70;;;11.40;;
57327;SDS011;43162;51.040;18.244;2022-07-24T00:47:20;25.90;;;11.80;;
57327;SDS011;43162;51.040;18.244;2022-07-24T00:50:04;26.90;;;11.70;;
57327;SDS011;43162;51.040;18.244;2022-07-24T00:52:49;27.60;;;13.40;;
57327;SDS011;43162;51.040;18.244;2022-07-24T00:55:33;24.00;;;12.50;;
57327;SDS011;43162;51.040;18.244;2022-07-24T00:58:18;20.00;;;12.50;;
57327;SDS011;43162;51.040;18.244;2022-07-24T01:01:02;19.40;;;12.50;;
57327;SDS011;43162;51.040;18.244;2022-07-24T01:03:46;18.20;;;12.30;;
57327;SDS011;43162;51.040;18.244;2022-07-24T01:06:30;18.30;;;11.00;;
57327;SDS011;43162;51.040;18.244;2022-07-24T01:09:14;16.00;;;10.90;;
57327;SDS011;43162;51.040;18.244;2022-07-24T01:11:59;18.60;;;11.10;;
57327;SDS011;43162;51.040;18.244;2022-07-24T01:14:43;18.60;;;10.90;;
57327;SDS011;43162;51.040;18.244;2022-07-24T01:17:31;21.50;;;10.90;;
57327;SDS011;43162;51.040;18.244;2022-07-24T01:20:15;15.30;;;10.60;;
57327;SDS011;43162;51.040;18.244;2022-07-24T01:22:59;13.80;;;10.40;;
57327;SDS011;43162;51.040;18.244;2022-07-24T01:25:43;13.70;;;10.00;;
57327;SDS011;43162;51.040;18.244;2022-07-24T01:28:27;15.90;;;10.50;;
57327;SDS011;43162;51.040;18.244;2022-07-24T01:31:11;17.60;;;10.00;;
57327;SDS011;43162;51.040;18.244;2022-07-24T01:33:55;15.80;;;10.20;;
57327;SDS011;43162;51.040;18.244;2022-07-24T01:36:40;17.70;;;10.30;;
57327;SDS011;43162;51.040;18.244;2022-07-24T01:39:24;18.80;;;10.30;;
57327;SDS011;43162;51.040;18.244;2022-07-24T01:42:08;15.90;;;10.50;;
57327;SDS011;43162;51.040;18.244;2022-07-24T01:44:52;18.40;;;11.00;;
57327;SDS011;43162;51.040;18.244;2022-07-24T01:47:36;15.90;;;10.60;;
57327;SDS011;43162;51.040;18.244;2022-07-24T01:50:20;15.30;;;11.00;;
57327;SDS011;43162;51.040;18.244;2022-07-24T01:53:04;16.20;;;11.00;;
57327;SDS011;43162;51.040;18.244;2022-07-24T01:55:51;17.60;;;11.20;;
57327;SDS011;43162;51.040;18.244;2022-07-24T01:58:36;17.80;;;10.80;;
57327;SDS011;43162;51.040;18.244;2022-07-24T02:01:22;15.70;;;11.50;;
57327;SDS011;43162;51.040;18.244;2022-07-24T02:04:06;15.10;;;11.10;;
57327;SDS011;43162;51.040;18.244;2022-07-24T02:06:50;18.30;;;12.30;;
57327;SDS011;43162;51.040;18.244;2022-07-24T02:09:34;16.50;;;11.90;;
57327;SDS011;43162;51.040;18.244;2022-07-24T02:12:18;14.80;;;11.40;;
57327;SDS011;43162;51.040;18.244;2022-07-24T02:15:03;17.80;;;12.70;;
57327;SDS011;43162;51.040;18.244;2022-07-24T02:17:48;16.20;;;12.70;;
57327;SDS011;43162;51.040;18.244;2022-07-24T02:20:32;15.20;;;12.10;;
57327;SDS011;43162;51.040;18.244;2022-07-24T02:23:16;15.90;;;11.50;;
57327;SDS011;43162;51.040;18.244;2022-07-24T02:26:04;19.00;;;11.80;;
57327;SDS011;43162;51.040;18.244;2022-07-24T02:28:48;14.20;;;10.80;;
57327;SDS011;43162;51.040;18.244;2022-07-24T02:31:32;14.60;;;11.20;;
57327;SDS011;43162;51.040;18.244;2022-07-24T02:34:16;14.30;;;11.70;;
57327;SDS011;43162;51.040;18.244;2022-07-24T02:37:00;16.20;;;12.50;;
57327;SDS011;43162;51.040;18.244;2022-07-24T02:39:44;17.10;;;13.70;;
57327;SDS011;43162;51.040;18.244;2022-07-24T02:42:28;18.40;;;14.60;;
57327;SDS011;43162;51.040;18.244;2022-07-24T02:45:12;19.00;;;15.00;;
57327;SDS011;43162;51.040;18.244;2022-07-24T02:47:56;18.00;;;14.70;;
57327;SDS011;43162;51.040;18.244;2022-07-24T02:50:41;19.00;;;15.70;;
57327;SDS011;43162;51.040;18.244;2022-07-24T02:53:25;20.10;;;16.40;;
57327;SDS011;43162;51.040;18.244;2022-07-24T02:56:09;19.70;;;16.20;;
57327;SDS011;43162;51.040;18.244;2022-07-24T02:58:53;20.10;;;16.60;;
57327;SDS011;43162;51.040;18.244;2022-07-24T03:01:37;19.60;;;15.60;;
57327;SDS011;43162;51.040;18.244;2022-07-24T03:04:21;21.60;;;16.50;;
57327;SDS011;43162;51.040;18.244;2022-07-24T03:07:05;18.80;;;16.30;;
57327;SDS011;43162;51.040;18.244;2022-07-24T03:09:49;22.40;;;13.30;;
57327;SDS011;43162;51.040;18.244;2022-07-24T03:12:34;26.30;;;13.10;;
57327;SDS011;43162;51.040;18.244;2022-07-24T03:15:18;26.00;;;13.50;;
57327;SDS011;43162;51.040;18.244;2022-07-24T03:18:02;24.00;;;11.70;;
57327;SDS011;43162;51.040;18.244;2022-07-24T03:20:46;24.70;;;11.60;;
57327;SDS011;43162;51.040;18.244;2022-07-24T03:23:30;21.80;;;11.80;;
57327;SDS011;43162;51.040;18.244;2022-07-24T03:26:14;22.40;;;11.20;;
57327;SDS011;43162;51.040;18.244;2022-07-24T03:28:59;20.90;;;11.50;;
57327;SDS011;43162;51.040;18.244;2022-07-24T03:31:43;20.50;;;10.10;;
57327;SDS011;43162;51.040;18.244;2022-07-24T03:34:27;16.40;;;8.40;;
57327;SDS011;43162;51.040;18.244;2022-07-24T03:37:11;15.50;;;7.90;;
57327;SDS011;43162;51.040;18.244;2022-07-24T03:39:55;13.10;;;7.30;;
57327;SDS011;43162;51.040;18.244;2022-07-24T03:42:39;13.40;;;7.00;;
57327;SDS011;43162;51.040;18.244;2022-07-24T03:45:24;17.00;;;7.10;;
57327;SDS011;43162;51.040;18.244;2022-07-24T03:48:07;12.00;;;6.50;;
57327;SDS011;43162;51.040;18.244;2022-07-24T03:50:52;14.30;;;6.40;;
57327;SDS011;43162;51.040;18.244;2022-07-24T03:53:36;15.60;;;6.30;;
57327;SDS011;43162;51.040;18.244;2022-07-24T03:56:20;13.40;;;6.10;;
57327;SDS011;43162;51.040;18.244;2022-07-24T03:59:04;14.60;;;6.40;;
57327;SDS011;43162;51.040;18.244;2022-07-24T04:01:48;12.60;;;6.30;;
57327;SDS011;43162;51.040;18.244;2022-07-24T04:04:32;13.70;;;6.20;;
57327;SDS011;43162;51.040;18.244;2022-07-24T04:07:16;13.90;;;6.70;;
57327;SDS011;43162;51.040;18.244;2022-07-24T04:10:00;10.40;;;6.00;;
57327;SDS011;43162;51.040;18.244;2022-07-24T04:12:44;14.20;;;6.60;;
57327;SDS011;43162;51.040;18.244;2022-07-24T04:15:28;11.80;;;6.30;;
57327;SDS011;43162;51.040;18.244;2022-07-24T04:18:12;11.90;;;6.40;;
57327;SDS011;43162;51.040;18.244;2022-07-24T04:20:57;11.10;;;6.10;;
57327;SDS011;43162;51.040;18.244;2022-07-24T04:23:41;12.20;;;6.00;;
57327;SDS011;43162;51.040;18.244;2022-07-24T04:26:25;12.80;;;6.70;;
57327;SDS011;43162;51.040;18.244;2022-07-24T04:29:10;11.00;;;6.40;;
57327;SDS011;43162;51.040;18.244;2022-07-24T04:31:54;14.50;;;6.70;;
57327;SDS011;43162;51.040;18.244;2022-07-24T04:34:38;13.10;;;6.70;;
57327;SDS011;43162;51.040;18.244;2022-07-24T04:37:22;12.00;;;6.70;;
57327;SDS011;43162;51.040;18.244;2022-07-24T04:40:07;11.60;;;6.70;;
57327;SDS011;43162;51.040;18.244;2022-07-24T04:42:51;12.20;;;7.00;;
57327;SDS011;43162;51.040;18.244;2022-07-24T04:45:35;11.90;;;7.40;;
57327;SDS011;43162;51.040;18.244;2022-07-24T04:48:19;11.70;;;7.70;;
57327;SDS011;43162;51.040;18.244;2022-07-24T04:51:03;10.20;;;6.80;;
57327;SDS011;43162;51.040;18.244;2022-07-24T04:53:47;11.60;;;7.60;;
57327;SDS011;43162;51.040;18.244;2022-07-24T04:56:31;11.30;;;7.70;;
57327;SDS011;43162;51.040;18.244;2022-07-24T04:59:16;13.70;;;8.00;;
57327;SDS011;43162;51.040;18.244;2022-07-24T05:02:00;13.70;;;8.00;;
57327;SDS011;43162;51.040;18.244;2022-07-24T05:04:45;13.00;;;7.50;;
57327;SDS011;43162;51.040;18.244;2022-07-24T05:07:29;14.60;;;8.00;;
57327;SDS011;43162;51.040;18.244;2022-07-24T05:10:13;12.90;;;8.00;;
57327;SDS011;43162;51.040;18.244;2022-07-24T05:12:57;12.30;;;7.80;;
57327;SDS011;43162;51.040;18.244;2022-07-24T05:15:41;12.30;;;7.90;;
57327;SDS011;43162;51.040;18.244;2022-07-24T05:18:25;11.90;;;7.80;;
57327;SDS011;43162;51.040;18.244;2022-07-24T05:21:09;11.00;;;7.70;;
57327;SDS011;43162;51.040;18.244;2022-07-24T05:23:53;9.70;;;7.80;;
57327;SDS011;43162;51.040;18.244;2022-07-24T05:26:37;12.80;;;7.90;;
57327;SDS011;43162;51.040;18.244;2022-07-24T05:29:21;10.50;;;7.50;;
57327;SDS011;43162;51.040;18.244;2022-07-24T05:32:06;10.90;;;6.70;;
57327;SDS011;43162;51.040;18.244;2022-07-24T05:34:50;8.90;;;6.50;;
57327;SDS011;43162;51.040;18.244;2022-07-24T05:37:34;10.60;;;6.90;;
57327;SDS011;43162;51.040;18.244;2022-07-24T05:40:18;10.60;;;6.40;;
57327;SDS011;43162;51.040;18.244;2022-07-24T05:43:02;10.50;;;6.50;;
57327;SDS011;43162;51.040;18.244;2022-07-24T05:45:46;11.50;;;6.60;;
57327;SDS011;43162;51.040;18.244;2022-07-24T05:48:32;8.50;;;6.00;;
57327;SDS011;43162;51.040;18.244;2022-07-24T05:51:16;11.60;;;6.60;;
57327;SDS011;43162;51.040;18.244;2022-07-24T05:54:00;10.10;;;6.50;;
57327;SDS011;43162;51.040;18.244;2022-07-24T05:56:44;9.00;;;5.80;;
57327;SDS011;43162;51.040;18.244;2022-07-24T05:59:28;9.90;;;6.30;;
57327;SDS011;43162;51.040;18.244;2022-07-24T06:02:12;8.70;;;6.20;;
57327;SDS011;43162;51.040;18.244;2022-07-24T06:04:57;9.60;;;5.80;;
57327;SDS011;43162;51.040;18.244;2022-07-24T06:07:41;9.30;;;5.50;;
57327;SDS011;43162;51.040;18.244;2022-07-24T06:10:28;8.60;;;5.20;;
57327;SDS011;43162;51.040;18.244;2022-07-24T06:13:13;8.40;;;5.30;;
57327;SDS011;43162;51.040;18.244;2022-07-24T06:15:57;8.20;;;5.30;;
57327;SDS011;43162;51.040;18.244;2022-07-24T06:18:41;8.00;;;5.00;;
57327;SDS011;43162;51.040;18.244;2022-07-24T06:21:25;9.80;;;5.20;;
57327;SDS011;43162;51.040;18.244;2022-07-24T06:24:10;8.70;;;5.00;;
57327;SDS011;43162;51.040;18.244;2022-07-24T06:26:54;9.70;;;5.30;;
57327;SDS011;43162;51.040;18.244;2022-07-24T06:29:38;8.10;;;4.70;;
57327;SDS011;43162;51.040;18.244;2022-07-24T06:32:25;7.30;;;4.70;;
57327;SDS011;43162;51.040;18.244;2022-07-24T06:35:09;8.10;;;4.70;;
57327;SDS011;43162;51.040;18.244;2022-07-24T06:37:54;7.00;;;4.60;;
57327;SDS011;43162;51.040;18.244;2022-07-24T06:40:39;7.40;;;4.20;;
57327;SDS011;43162;51.040;18.244;2022-07-24T06:43:24;7.20;;;3.80;;
57327;SDS011;43162;51.040;18.244;2022-07-24T06:46:08;5.90;;;3.80;;
57327;SDS011;43162;51.040;18.244;2022-07-24T06:48:52;7.90;;;3.60;;
57327;SDS011;43162;51.040;18.244;2022-07-24T06:51:36;6.90;;;2.80;;
57327;SDS011;43162;51.040;18.244;2022-07-24T06:54:20;7.10;;;3.30;;
57327;SDS011;43162;51.040;18.244;2022-07-24T06:57:04;5.80;;;3.10;;
57327;SDS011;43162;51.040;18.244;2022-07-24T06:59:48;5.90;;;2.50;;
57327;SDS011;43162;51.040;18.244;2022-07-24T07:02:33;6.90;;;3.10;;
57327;SDS011;43162;51.040;18.244;2022-07-24T07:05:18;5.50;;;2.80;;
57327;SDS011;43162;51.040;18.244;2022-07-24T07:08:02;6.60;;;2.90;;
57327;SDS011;43162;51.040;18.244;2022-07-24T07:10:47;5.70;;;2.20;;
57327;SDS011;43162;51.040;18.244;2022-07-24T07:13:32;7.10;;;2.80;;
57327;SDS011;43162;51.040;18.244;2022-07-24T07:16:16;6.60;;;2.30;;
57327;SDS011;43162;51.040;18.244;2022-07-24T07:19:01;4.70;;;2.00;;
57327;SDS011;43162;51.040;18.244;2022-07-24T07:21:45;6.70;;;1.80;;
57327;SDS011;43162;51.040;18.244;2022-07-24T07:24:30;4.20;;;1.80;;
57327;SDS011;43162;51.040;18.244;2022-07-24T07:27:14;6.00;;;1.60;;
57327;SDS011;43162;51.040;18.244;2022-07-24T07:29:58;4.30;;;1.20;;
57327;SDS011;43162;51.040;18.244;2022-07-24T07:32:42;5.20;;;1.40;;
57327;SDS011;43162;51.040;18.244;2022-07-24T07:35:27;2.70;;;1.30;;
57327;SDS011;43162;51.040;18.244;2022-07-24T07:38:11;4.20;;;1.10;;
57327;SDS011;43162;51.040;18.244;2022-07-24T07:40:56;4.90;;;1.00;;
57327;SDS011;43162;51.040;18.244;2022-07-24T07:43:41;2.90;;;0.90;;
57327;SDS011;43162;51.040;18.244;2022-07-24T07:46:26;4.00;;;0.90;;
57327;SDS011;43162;51.040;18.244;2022-07-24T07:49:11;4.60;;;0.90;;
57327;SDS011;43162;51.040;18.244;2022-07-24T07:51:58;4.20;;;0.80;;
57327;SDS011;43162;51.040;18.244;2022-07-24T07:54:42;3.90;;;0.80;;
57327;SDS011;43162;51.040;18.244;2022-07-24T07:57:26;3.50;;;0.70;;
57327;SDS011;43162;51.040;18.244;2022-07-24T08:00:11;4.20;;;0.70;;
57327;SDS011;43162;51.040;18.244;2022-07-24T08:02:59;2.50;;;0.70;;
57327;SDS011;43162;51.040;18.244;2022-07-24T08:05:43;4.00;;;0.70;;
57327;SDS011;43162;51.040;18.244;2022-07-24T08:08:28;2.20;;;0.60;;
57327;SDS011;43162;51.040;18.244;2022-07-24T08:11:12;3.00;;;0.70;;
57327;SDS011;43162;51.040;18.244;2022-07-24T08:13:57;7.00;;;0.60;;
57327;SDS011;43162;51.040;18.244;2022-07-24T08:16:42;2.60;;;0.50;;
57327;SDS011;43162;51.040;18.244;2022-07-24T08:19:26;2.40;;;0.60;;
57327;SDS011;43162;51.040;18.244;2022-07-24T08:22:11;2.80;;;0.60;;
57327;SDS011;43162;51.040;18.244;2022-07-24T08:24:55;2.00;;;0.60;;
57327;SDS011;43162;51.040;18.244;2022-07-24T08:27:40;6.00;;;0.70;;
57327;SDS011;43162;51.040;18.244;2022-07-24T08:30:25;2.80;;;0.60;;
57327;SDS011;43162;51.040;18.244;2022-07-24T08:33:12;2.70;;;0.60;;
57327;SDS011;43162;51.040;18.244;2022-07-24T08:35:56;1.60;;;0.40;;
57327;SDS011;43162;51.040;18.244;2022-07-24T08:38:40;2.20;;;0.50;;
57327;SDS011;43162;51.040;18.244;2022-07-24T08:41:26;1.70;;;0.40;;
57327;SDS011;43162;51.040;18.244;2022-07-24T08:44:16;2.20;;;0.40;;
57327;SDS011;43162;51.040;18.244;2022-07-24T08:47:01;3.00;;;0.50;;
57327;SDS011;43162;51.040;18.244;2022-07-24T08:49:46;2.10;;;0.50;;
57327;SDS011;43162;51.040;18.244;2022-07-24T08:52:32;3.50;;;0.50;;
57327;SDS011;43162;51.040;18.244;2022-07-24T08:55:21;1.90;;;0.60;;
57327;SDS011;43162;51.040;18.244;2022-07-24T08:58:05;3.10;;;0.50;;
57327;SDS011;43162;51.040;18.244;2022-07-24T09:00:49;2.60;;;0.50;;
57327;SDS011;43162;51.040;18.244;2022-07-24T09:03:43;3.80;;;0.60;;
57327;SDS011;43162;51.040;18.244;2022-07-24T09:06:29;1.60;;;0.50;;
57327;SDS011;43162;51.040;18.244;2022-07-24T09:09:20;2.10;;;0.40;;
57327;SDS011;43162;51.040;18.244;2022-07-24T09:12:17;3.00;;;0.40;;
57327;SDS011;43162;51.040;18.244;2022-07-24T09:15:10;2.90;;;0.50;;
57327;SDS011;43162;51.040;18.244;2022-07-24T09:17:56;2.50;;;0.30;;
57327;SDS011;43162;51.040;18.244;2022-07-24T09:20:41;2.10;;;0.40;;
57327;SDS011;43162;51.040;18.244;2022-07-24T09:23:26;1.90;;;0.40;;
57327;SDS011;43162;51.040;18.244;2022-07-24T09:26:11;1.10;;;0.30;;
57327;SDS011;43162;51.040;18.244;2022-07-24T09:28:55;2.60;;;0.50;;
57327;SDS011;43162;51.040;18.244;2022-07-24T09:31:56;2.00;;;0.30;;
57327;SDS011;43162;51.040;18.244;2022-07-24T09:34:41;1.70;;;0.40;;
57327;SDS011;43162;51.040;18.244;2022-07-24T09:37:26;2.70;;;0.50;;
57327;SDS011;43162;51.040;18.244;2022-07-24T09:40:11;1.80;;;0.30;;
57327;SDS011;43162;51.040;18.244;2022-07-24T09:46:05;3.40;;;0.30;;
57327;SDS011;43162;51.040;18.244;2022-07-24T09:51:34;0.70;;;0.40;;
57327;SDS011;43162;51.040;18.244;2022-07-24T09:54:32;2.60;;;0.30;;
57327;SDS011;43162;51.040;18.244;2022-07-24T09:57:19;1.20;;;0.40;;
57327;SDS011;43162;51.040;18.244;2022-07-24T10:00:06;1.30;;;0.30;;
57327;SDS011;43162;51.040;18.244;2022-07-24T10:02:51;1.50;;;0.40;;
57327;SDS011;43162;51.040;18.244;2022-07-24T10:05:39;1.00;;;0.40;;
57327;SDS011;43162;51.040;18.244;2022-07-24T10:08:28;1.10;;;0.40;;
57327;SDS011;43162;51.040;18.244;2022-07-24T10:11:13;2.30;;;0.40;;
57327;SDS011;43162;51.040;18.244;2022-07-24T10:13:58;2.00;;;0.40;;
57327;SDS011;43162;51.040;18.244;2022-07-24T10:16:42;1.90;;;0.40;;
57327;SDS011;43162;51.040;18.244;2022-07-24T10:19:31;2.50;;;0.50;;
57327;SDS011;43162;51.040;18.244;2022-07-24T10:22:22;3.60;;;0.40;;
57327;SDS011;43162;51.040;18.244;2022-07-24T10:25:07;0.90;;;0.40;;
57327;SDS011;43162;51.040;18.244;2022-07-24T10:27:53;1.00;;;0.40;;
57327;SDS011;43162;51.040;18.244;2022-07-24T10:30:38;1.70;;;0.40;;
57327;SDS011;43162;51.040;18.244;2022-07-24T10:33:23;2.60;;;0.60;;
57327;SDS011;43162;51.040;18.244;2022-07-24T10:36:22;2.80;;;0.30;;
57327;SDS011;43162;51.040;18.244;2022-07-24T10:39:10;1.90;;;0.40;;
57327;SDS011;43162;51.040;18.244;2022-07-24T10:42:01;1.40;;;0.50;;
57327;SDS011;43162;51.040;18.244;2022-07-24T10:45:11;2.10;;;0.40;;
57327;SDS011;43162;51.040;18.244;2022-07-24T10:47:49;1.70;;;0.40;;
57327;SDS011;43162;51.040;18.244;2022-07-24T10:53:46;2.00;;;0.50;;
57327;SDS011;43162;51.040;18.244;2022-07-24T10:59:15;2.60;;;0.50;;
57327;SDS011;43162;51.040;18.244;2022-07-24T11:02:28;2.20;;;0.40;;
57327;SDS011;43162;51.040;18.244;2022-07-24T11:05:30;0.80;;;0.40;;
57327;SDS011;43162;51.040;18.244;2022-07-24T11:11:16;2.20;;;0.60;;
57327;SDS011;43162;51.040;18.244;2022-07-24T11:14:02;2.70;;;0.40;;
57327;SDS011;43162;51.040;18.244;2022-07-24T11:16:46;1.70;;;0.40;;
57327;SDS011;43162;51.040;18.244;2022-07-24T11:19:30;1.30;;;0.40;;
57327;SDS011;43162;51.040;18.244;2022-07-24T11:22:15;2.50;;;0.40;;
57327;SDS011;43162;51.040;18.244;2022-07-24T11:25:06;2.30;;;0.40;;
57327;SDS011;43162;51.040;18.244;2022-07-24T11:27:55;1.80;;;0.40;;
57327;SDS011;43162;51.040;18.244;2022-07-24T11:30:41;1.90;;;0.50;;
57327;SDS011;43162;51.040;18.244;2022-07-24T11:33:26;1.50;;;0.40;;
57327;SDS011;43162;51.040;18.244;2022-07-24T11:36:10;1.50;;;0.40;;
57327;SDS011;43162;51.040;18.244;2022-07-24T11:38:57;2.50;;;0.40;;
57327;SDS011;43162;51.040;18.244;2022-07-24T11:44:30;2.00;;;0.50;;
57327;SDS011;43162;51.040;18.244;2022-07-24T11:49:59;1.90;;;0.40;;
57327;SDS011;43162;51.040;18.244;2022-07-24T11:52:45;2.80;;;0.50;;
57327;SDS011;43162;51.040;18.244;2022-07-24T11:55:29;2.30;;;0.50;;
57327;SDS011;43162;51.040;18.244;2022-07-24T11:58:14;2.00;;;0.50;;
57327;SDS011;43162;51.040;18.244;2022-07-24T12:01:01;1.20;;;0.50;;
57327;SDS011;43162;51.040;18.244;2022-07-24T12:03:49;0.90;;;0.40;;
57327;SDS011;43162;51.040;18.244;2022-07-24T12:06:34;2.90;;;0.50;;
57327;SDS011;43162;51.040;18.244;2022-07-24T12:09:19;2.50;;;0.50;;
57327;SDS011;43162;51.040;18.244;2022-07-24T12:12:03;1.40;;;0.50;;
57327;SDS011;43162;51.040;18.244;2022-07-24T12:14:50;1.30;;;0.50;;
57327;SDS011;43162;51.040;18.244;2022-07-24T12:17:35;1.80;;;0.50;;
57327;SDS011;43162;51.040;18.244;2022-07-24T12:20:44;2.50;;;0.40;;
57327;SDS011;43162;51.040;18.244;2022-07-24T12:23:27;4.10;;;0.60;;
57327;SDS011;43162;51.040;18.244;2022-07-24T12:26:15;1.70;;;0.40;;
57327;SDS011;43162;51.040;18.244;2022-07-24T12:29:09;1.00;;;0.50;;
57327;SDS011;43162;51.040;18.244;2022-07-24T12:32:16;1.00;;;0.40;;
57327;SDS011;43162;51.040;18.244;2022-07-24T12:35:10;1.50;;;0.50;;
57327;SDS011;43162;51.040;18.244;2022-07-24T12:37:55;1.50;;;0.40;;
57327;SDS011;43162;51.040;18.244;2022-07-24T12:40:40;2.20;;;0.50;;
57327;SDS011;43162;51.040;18.244;2022-07-24T12:43:25;1.60;;;0.40;;
57327;SDS011;43162;51.040;18.244;2022-07-24T12:46:10;2.00;;;0.50;;
57327;SDS011;43162;51.040;18.244;2022-07-24T12:51:52;1.10;;;0.40;;
57327;SDS011;43162;51.040;18.244;2022-07-24T12:54:38;1.70;;;0.40;;
57327;SDS011;43162;51.040;18.244;2022-07-24T12:57:29;1.60;;;0.40;;
57327;SDS011;43162;51.040;18.244;2022-07-24T13:00:14;2.40;;;0.40;;
57327;SDS011;43162;51.040;18.244;2022-07-24T13:02:58;2.10;;;0.50;;
57327;SDS011;43162;51.040;18.244;2022-07-24T13:05:42;3.00;;;0.50;;
57327;SDS011;43162;51.040;18.244;2022-07-24T13:08:31;1.80;;;0.40;;
57327;SDS011;43162;51.040;18.244;2022-07-24T13:11:16;3.20;;;0.50;;
57327;SDS011;43162;51.040;18.244;2022-07-24T13:14:00;4.30;;;0.50;;
57327;SDS011;43162;51.040;18.244;2022-07-24T13:16:45;4.10;;;0.50;;
57327;SDS011;43162;51.040;18.244;2022-07-24T13:19:30;2.10;;;0.60;;
57327;SDS011;43162;51.040;18.244;2022-07-24T13:22:14;1.40;;;0.60;;
57327;SDS011;43162;51.040;18.244;2022-07-24T13:24:59;0.90;;;0.40;;
57327;SDS011;43162;51.040;18.244;2022-07-24T13:27:44;1.50;;;0.40;;
57327;SDS011;43162;51.040;18.244;2022-07-24T13:30:29;2.50;;;0.50;;
57327;SDS011;43162;51.040;18.244;2022-07-24T13:33:13;1.00;;;0.30;;
57327;SDS011;43162;51.040;18.244;2022-07-24T13:35:58;1.00;;;0.30;;
57327;SDS011;43162;51.040;18.244;2022-07-24T13:38:42;1.10;;;0.40;;
57327;SDS011;43162;51.040;18.244;2022-07-24T13:41:27;3.10;;;0.40;;
57327;SDS011;43162;51.040;18.244;2022-07-24T13:44:12;1.30;;;0.40;;
57327;SDS011;43162;51.040;18.244;2022-07-24T13:46:57;1.10;;;0.40;;
57327;SDS011;43162;51.040;18.244;2022-07-24T13:49:41;2.30;;;0.30;;
57327;SDS011;43162;51.040;18.244;2022-07-24T13:52:26;0.80;;;0.30;;
57327;SDS011;43162;51.040;18.244;2022-07-24T13:55:11;0.90;;;0.30;;
57327;SDS011;43162;51.040;18.244;2022-07-24T13:57:55;1.70;;;0.40;;
57327;SDS011;43162;51.040;18.244;2022-07-24T14:00:39;4.40;;;0.60;;
57327;SDS011;43162;51.040;18.244;2022-07-24T14:03:23;1.60;;;0.40;;
57327;SDS011;43162;51.040;18.244;2022-07-24T14:06:08;1.30;;;0.40;;
57327;SDS011;43162;51.040;18.244;2022-07-24T14:08:53;3.30;;;0.50;;
57327;SDS011;43162;51.040;18.244;2022-07-24T14:11:38;1.80;;;0.50;;
57327;SDS011;43162;51.040;18.244;2022-07-24T14:14:24;1.90;;;0.30;;
57327;SDS011;43162;51.040;18.244;2022-07-24T14:17:08;1.10;;;0.30;;
57327;SDS011;43162;51.040;18.244;2022-07-24T14:20:08;1.90;;;0.40;;
57327;SDS011;43162;51.040;18.244;2022-07-24T14:22:53;1.60;;;0.40;;
57327;SDS011;43162;51.040;18.244;2022-07-24T14:25:37;1.90;;;0.50;;
57327;SDS011;43162;51.040;18.244;2022-07-24T14:28:22;1.00;;;0.40;;
57327;SDS011;43162;51.040;18.244;2022-07-24T14:31:07;2.30;;;0.40;;
57327;SDS011;43162;51.040;18.244;2022-07-24T14:33:51;0.90;;;0.40;;
57327;SDS011;43162;51.040;18.244;2022-07-24T14:36:36;1.30;;;0.40;;
57327;SDS011;43162;51.040;18.244;2022-07-24T14:39:23;2.00;;;0.40;;
57327;SDS011;43162;51.040;18.244;2022-07-24T14:42:08;1.60;;;0.60;;
57327;SDS011;43162;51.040;18.244;2022-07-24T14:44:53;0.70;;;0.40;;
57327;SDS011;43162;51.040;18.244;2022-07-24T14:47:37;0.90;;;0.40;;
57327;SDS011;43162;51.040;18.244;2022-07-24T14:50:22;1.70;;;0.40;;
57327;SDS011;43162;51.040;18.244;2022-07-24T14:53:07;1.60;;;0.40;;
57327;SDS011;43162;51.040;18.244;2022-07-24T14:55:52;2.30;;;0.30;;
57327;SDS011;43162;51.040;18.244;2022-07-24T14:58:36;1.00;;;0.40;;
57327;SDS011;43162;51.040;18.244;2022-07-24T15:01:21;1.70;;;0.40;;
57327;SDS011;43162;51.040;18.244;2022-07-24T15:04:06;1.60;;;0.40;;
57327;SDS011;43162;51.040;18.244;2022-07-24T15:06:50;2.60;;;0.50;;
57327;SDS011;43162;51.040;18.244;2022-07-24T15:09:35;2.50;;;0.50;;
57327;SDS011;43162;51.040;18.244;2022-07-24T15:12:19;1.80;;;0.40;;
57327;SDS011;43162;51.040;18.244;2022-07-24T15:15:04;1.60;;;0.40;;
57327;SDS011;43162;51.040;18.244;2022-07-24T15:17:48;0.90;;;0.40;;
57327;SDS011;43162;51.040;18.244;2022-07-24T15:20:33;1.40;;;0.40;;
57327;SDS011;43162;51.040;18.244;2022-07-24T15:23:17;1.50;;;0.40;;
57327;SDS011;43162;51.040;18.244;2022-07-24T15:26:01;1.80;;;0.30;;
57327;SDS011;43162;51.040;18.244;2022-07-24T15:28:46;1.50;;;0.40;;
57327;SDS011;43162;51.040;18.244;2022-07-24T15:32:30;2.00;;;0.40;;
57327;SDS011;43162;51.040;18.244;2022-07-24T15:35:15;0.90;;;0.40;;
57327;SDS011;43162;51.040;18.244;2022-07-24T15:37:59;1.30;;;0.50;;
57327;SDS011;43162;51.040;18.244;2022-07-24T15:40:44;1.90;;;0.50;;
57327;SDS011;43162;51.040;18.244;2022-07-24T15:43:28;2.90;;;0.60;;
57327;SDS011;43162;51.040;18.244;2022-07-24T15:46:13;2.40;;;0.50;;
57327;SDS011;43162;51.040;18.244;2022-07-24T15:48:58;1.20;;;0.40;;
57327;SDS011;43162;51.040;18.244;2022-07-24T15:51:42;4.60;;;1.90;;
57327;SDS011;43162;51.040;18.244;2022-07-24T15:54:26;2.70;;;0.60;;
57327;SDS011;43162;51.040;18.244;2022-07-24T15:57:11;1.90;;;0.60;;
57327;SDS011;43162;51.040;18.244;2022-07-24T15:59:55;1.60;;;0.50;;
57327;SDS011;43162;51.040;18.244;2022-07-24T16:02:40;1.30;;;0.60;;
57327;SDS011;43162;51.040;18.244;2022-07-24T16:05:25;1.90;;;0.60;;
57327;SDS011;43162;51.040;18.244;2022-07-24T16:08:09;2.00;;;0.80;;
57327;SDS011;43162;51.040;18.244;2022-07-24T16:10:54;1.80;;;0.60;;
57327;SDS011;43162;51.040;18.244;2022-07-24T16:13:39;4.00;;;1.30;;
57327;SDS011;43162;51.040;18.244;2022-07-24T16:16:23;3.30;;;0.80;;
57327;SDS011;43162;51.040;18.244;2022-07-24T16:19:08;2.50;;;0.60;;
57327;SDS011;43162;51.040;18.244;2022-07-24T16:21:53;2.10;;;0.80;;
57327;SDS011;43162;51.040;18.244;2022-07-24T16:24:37;1.30;;;0.60;;
57327;SDS011;43162;51.040;18.244;2022-07-24T16:27:21;3.50;;;2.10;;
57327;SDS011;43162;51.040;18.244;2022-07-24T16:30:06;4.60;;;2.00;;
57327;SDS011;43162;51.040;18.244;2022-07-24T16:32:51;5.40;;;0.60;;
57327;SDS011;43162;51.040;18.244;2022-07-24T16:35:35;6.00;;;0.70;;